Marlin Amber — V7HD7 — position and weather

sailwx.info

Track history (hours):
 
Tides and Currents Weather Stations Pressure Air Temp Water Temp Dewpoint Dewpoint Depression Visibility Wind Speed Wind Dir Waves Ship Positions

Marlin Amber

Last reported at 2018-Jun-19 18:28 UTC. Time now 2018-Jun-19 18:29 UTC.
Position N 09°22' W 079°56'.

Length 183 m; draft 7.5 m.

Type: Tanker. MMSI: 538005802.

Date/timePositionNaut miles runAvg speedWind from/ knotsBaromVisibWave heightAir tempDewpointWater temp
2018-Jun-19 18:28N 09°22' W 079°56'0 0.9
2018-Jun-19 18:00N 09°22' W 079°55'4 7.2
2018-Jun-19 17:30N 09°18' W 079°55'2 3.3
2018-Jun-19 16:57N 09°17' W 079°55'0 0.4
2018-Jun-19 16:30N 09°16' W 079°55'0 0.4
2018-Jun-19 16:00N 09°16' W 079°55'0 0.5
2018-Jun-19 15:30N 09°16' W 079°55'1 1.1
2018-Jun-19 15:00N 09°15' W 079°55'1 2.7
2018-Jun-19 14:30N 09°14' W 079°55'3 5.5
2018-Jun-19 14:00N 09°12' W 079°54'  
Track history (hours):
 
Tides and Currents Weather Stations Pressure Air Temp Water Temp Dewpoint Dewpoint Depression Visibility Wind Speed Wind Dir Waves Ship Positions

Marlin Amber

Last reported at 2018-Jun-19 18:28 UTC. Time now 2018-Jun-19 18:29 UTC.
Position N 09°22' W 079°56'.

Length 183 m; draft 7.5 m.

Type: Tanker. MMSI: 538005802.

Date/timePositionNaut miles runAvg speedWind from/ knotsBaromVisibWave heightAir tempDewpointWater temp
2018-Jun-19 18:28N 09°22' W 079°56'0 0.9
2018-Jun-19 18:00N 09°22' W 079°55'4 7.2
2018-Jun-19 17:30N 09°18' W 079°55'2 3.3
2018-Jun-19 16:57N 09°17' W 079°55'0 0.4
2018-Jun-19 16:30N 09°16' W 079°55'0 0.4
2018-Jun-19 16:00N 09°16' W 079°55'0 0.5
2018-Jun-19 15:30N 09°16' W 079°55'1 1.1
2018-Jun-19 15:00N 09°15' W 079°55'1 2.7
2018-Jun-19 14:30N 09°14' W 079°55'3 5.5
2018-Jun-19 14:00N 09°12' W 079°54'  

Dump ship's entire track history